Ana Sayfa
METAR-TAF:

METAR-TAF

Havaalanları :

Hartum, Sudan

Enlem: 15-36N, Boylam: 032-33E, yükseklik: 382 m

Güncel hava durumu gözlemi

Rapor saat 22:00 UTC de 19 dakika önce yapıldı.
Rüzgar kuzeydan 9 kt
Sıcaklık 28°C
Nem 10%
Basınç 1011 hPa
Görüş mesafesi 10 km veya daha fazla
1500 m altında bulut yok ve kümülonimbus yok

METAR: HSSS 202200Z 36009KT CAVOK 28/M07 Q1011 NOSIG

Saat: 01:19 (22:19 UTC)

Tahmin

Rapor saat 17:00 UTC de 5 saat ve 19 dakika önce yapıldı.
Ayın 20'si saat 18 UTC'den ayın 21'si saat 24 UTC'ye kadar geçerli Tahmin
Rüzgar kuzeydan 12 kt ve 22 kt'a kadar ani rüzgarlar
Görüş mesafesi: 8000 m
Geçici
ayın 20'si saat 18 UTC'den ayın 20'si saat 21 UTC'ye kadar
Görüş mesafesi: 6000 m
Açık gökyüzü
Olasılık 30%
ayın 21'si saat 04 UTC'den ayın 21'si saat 07 UTC'ye kadar
Görüş mesafesi: 4000 m
Savrulan kum

TAF: HSSS 201700Z 2018/2124 36012G22KT 8000 TEMPO 2018/2021 6000 SKC PROB30 2104/2107 4000 BLSA

4.000'den fazla havaalanı için hava durumu gözlemleri ve tahminleri (METAR ve TAF raporları).

Kullanılabilir istasyonlar harita üzerinde sarı ve kırmızı noktalarla gösterilir.

İstasyonun adını görmek için fareyi noktanın üzerinde gezdirin.

Sonrasında hava gözlem ve tahminlerini görmek için tıklayın.

Haritayı değiştirmek için: yaklaştırmak için siyah artı işaretli yeşil düğmeye ve uzaklaştırmak için de eksi işaretli düğmeye hızla tıklayın; bitişik haritalar için yeşil okları kullanın.


METAR-TAF: